Terminal Aerodrome Forecast
Issued by NWS Cleveland, OH

Home | Current Version | Previous Version | Text Only | Print | Product List | Glossary On
Versions: 1 2 3 4 5 6 7 8 9 10 11 12 13 14 15 16 17 18 19 20 21 22 23 24 25 26 27 28 29 30 31 32 33 34
000
FTUS41 KCLE 061400 AAA
TAFCLE
TAF AMD
KCLE 061456Z 0615/0718 20010KT P6SM SCT250
     FM061800 21012G20KT P6SM BKN035
     FM070000 21010KT P6SM BKN050 OVC120
     FM070900 21012KT P6SM OVC025=

USA.gov is the U.S. government's official web portal to all federal, state and local government web resources and services.